createdAt,value
2023-03-06T00:01:26.339Z,18.12
2023-03-06T00:04:09.607Z,18.10
2023-03-06T00:06:59.386Z,18.02
2023-03-06T00:09:47.642Z,18.00
2023-03-06T00:12:30.370Z,17.86
2023-03-06T00:15:13.694Z,17.90
2023-03-06T00:18:03.383Z,17.85
2023-03-06T00:20:46.194Z,17.79
2023-03-06T00:23:35.407Z,17.80
2023-03-06T00:26:23.717Z,17.73
2023-03-06T00:29:06.355Z,17.69
2023-03-06T00:31:49.092Z,17.57
2023-03-06T00:34:38.344Z,17.49
2023-03-06T00:37:27.610Z,17.42
2023-03-06T00:40:10.415Z,17.35
2023-03-06T00:42:58.753Z,17.36
2023-03-06T00:45:41.433Z,17.39
2023-03-06T00:48:29.866Z,17.38
2023-03-06T00:51:13.997Z,17.32
2023-03-06T00:54:02.656Z,17.24
2023-03-06T00:56:45.370Z,17.29
2023-03-06T00:59:33.604Z,17.24
2023-03-06T01:02:16.362Z,17.30
2023-03-06T01:05:05.389Z,17.25
2023-03-06T01:08:01.181Z,17.28
2023-03-06T01:10:50.386Z,17.27
2023-03-06T01:13:39.456Z,17.27
2023-03-06T01:16:29.641Z,17.40
2023-03-06T01:19:12.509Z,17.50
2023-03-06T01:22:02.428Z,17.58
2023-03-06T01:24:44.663Z,17.66
2023-03-06T01:27:33.364Z,17.67
2023-03-06T01:30:19.627Z,17.70
2023-03-06T01:33:09.320Z,18.03
2023-03-06T01:35:51.744Z,17.86
2023-03-06T01:38:40.403Z,17.87
2023-03-06T01:41:23.678Z,18.11
2023-03-06T01:44:12.345Z,17.95
2023-03-06T01:46:55.680Z,17.87
2023-03-06T01:49:48.379Z,18.00
2023-03-06T01:52:36.641Z,17.90
2023-03-06T01:55:30.417Z,17.91
2023-03-06T01:58:25.424Z,17.98
2023-03-06T02:01:31.246Z,18.01
2023-03-06T02:04:20.314Z,18.11
2023-03-06T02:07:12.435Z,18.09
2023-03-06T02:10:00.579Z,18.21
2023-03-06T02:12:45.383Z,18.32
2023-03-06T02:15:37.380Z,18.35
2023-03-06T02:18:26.488Z,18.42
2023-03-06T02:21:14.908Z,18.59
2023-03-06T02:24:19.357Z,18.62
2023-03-06T02:27:04.369Z,18.81
2023-03-06T02:29:54.404Z,19.10
2023-03-06T02:32:36.629Z,19.86
2023-03-06T02:35:38.466Z,20.23
2023-03-06T02:38:30.334Z,20.36
2023-03-06T02:41:16.682Z,20.96
2023-03-06T02:44:05.444Z,21.93
2023-03-06T02:46:47.656Z,22.33
2023-03-06T02:49:36.648Z,23.07
2023-03-06T02:52:19.639Z,24.04
2023-03-06T02:55:08.367Z,24.01
2023-03-06T02:57:57.386Z,24.27
2023-03-06T03:00:46.328Z,24.67
2023-03-06T03:03:29.688Z,24.85
2023-03-06T03:06:21.441Z,25.27
2023-03-06T03:09:09.691Z,25.02
2023-03-06T03:11:53.381Z,24.49
2023-03-06T03:14:42.429Z,24.15
2023-03-06T03:17:24.705Z,24.20
2023-03-06T03:20:15.379Z,24.66
2023-03-06T03:23:00.643Z,24.88
2023-03-06T03:25:49.382Z,24.95
2023-03-06T03:28:38.274Z,25.37
2023-03-06T03:31:29.462Z,25.96
2023-03-06T03:34:13.028Z,25.99
2023-03-06T03:37:02.420Z,25.45
2023-03-06T03:39:46.674Z,25.41
2023-03-06T03:42:36.328Z,25.46
2023-03-06T03:45:26.348Z,25.48
2023-03-06T03:48:16.591Z,25.58
2023-03-06T03:50:59.711Z,25.36
2023-03-06T03:53:51.676Z,25.64
2023-03-06T03:56:37.408Z,26.07
2023-03-06T03:59:25.683Z,25.74
2023-03-06T04:02:40.381Z,26.53
2023-03-06T04:05:41.419Z,27.25
2023-03-06T04:08:25.750Z,27.44
2023-03-06T04:11:15.396Z,26.26
2023-03-06T04:13:57.647Z,26.38
2023-03-06T04:16:47.311Z,26.99
2023-03-06T04:19:36.398Z,28.13
2023-03-06T04:22:20.570Z,28.78
2023-03-06T04:25:10.402Z,28.35
2023-03-06T04:27:52.595Z,28.19
2023-03-06T04:30:42.424Z,29.14
2023-03-06T04:33:25.714Z,29.03
2023-03-06T04:36:15.378Z,29.31
2023-03-06T04:39:05.749Z,29.10
2023-03-06T04:41:49.391Z,29.05
2023-03-06T04:44:31.714Z,28.92
2023-03-06T04:47:20.434Z,28.83
2023-03-06T04:50:08.667Z,28.81
2023-03-06T04:52:51.438Z,28.60
2023-03-06T04:55:39.668Z,28.69
2023-03-06T04:58:22.700Z,28.77
2023-03-06T05:01:11.714Z,28.65
2023-03-06T05:03:54.309Z,28.99
2023-03-06T05:06:42.657Z,28.93
2023-03-06T05:09:31.367Z,29.16
2023-03-06T05:12:13.618Z,29.17
2023-03-06T05:15:02.412Z,29.13
2023-03-06T05:17:45.669Z,29.33
2023-03-06T05:20:36.418Z,29.51
2023-03-06T05:23:18.622Z,29.47
2023-03-06T05:26:07.288Z,29.25
2023-03-06T05:28:49.814Z,29.29
2023-03-06T05:31:38.416Z,29.38
2023-03-06T05:34:22.621Z,29.48
2023-03-06T05:37:11.411Z,29.46
2023-03-06T05:39:53.670Z,29.34
2023-03-06T05:42:42.346Z,29.51
2023-03-06T05:45:24.613Z,29.49
2023-03-06T05:48:14.413Z,29.22
2023-03-06T05:51:03.727Z,29.45
2023-03-06T05:53:52.410Z,29.38
2023-03-06T05:56:34.909Z,29.82
2023-03-06T05:59:23.384Z,29.91
2023-03-06T06:02:13.534Z,29.68
2023-03-06T06:05:01.635Z,29.25
2023-03-06T06:07:44.307Z,29.62
2023-03-06T06:10:33.626Z,29.82
2023-03-06T06:13:16.359Z,29.74
2023-03-06T06:16:05.400Z,29.77
2023-03-06T06:18:54.339Z,29.58
2023-03-06T06:21:36.601Z,29.85
2023-03-06T06:24:25.361Z,29.80
2023-03-06T06:27:08.292Z,29.89
2023-03-06T06:29:57.365Z,30.06
2023-03-06T06:32:40.214Z,30.13
2023-03-06T06:35:29.396Z,30.03
2023-03-06T06:38:17.585Z,29.99
2023-03-06T06:41:31.171Z,30.05
2023-03-06T06:44:08.766Z,29.94
2023-03-06T06:47:21.897Z,30.13
2023-03-06T06:50:01.347Z,30.06
2023-03-06T06:52:43.826Z,29.99
2023-03-06T06:55:32.446Z,30.01
2023-03-06T06:58:14.650Z,30.13
2023-03-06T07:01:03.402Z,29.92
2023-03-06T07:03:52.363Z,29.92
2023-03-06T07:06:40.713Z,29.89
2023-03-06T07:09:30.321Z,30.09
2023-03-06T07:12:19.399Z,29.81
2023-03-06T07:15:08.052Z,30.11
2023-03-06T07:17:51.419Z,29.81
2023-03-06T07:20:39.574Z,30.06
2023-03-06T07:23:22.353Z,29.91
2023-03-06T07:26:11.383Z,30.10
2023-03-06T07:28:56.486Z,29.94
2023-03-06T07:31:45.405Z,29.84
2023-03-06T07:34:27.982Z,30.05
2023-03-06T07:37:18.349Z,29.93
2023-03-06T07:40:00.763Z,30.24
2023-03-06T07:42:49.392Z,30.15
2023-03-06T07:45:35.696Z,30.04
2023-03-06T07:48:24.332Z,30.04
2023-03-06T07:51:22.350Z,29.99
2023-03-06T07:54:11.632Z,29.69
2023-03-06T07:56:54.407Z,29.92
2023-03-06T07:59:42.656Z,30.00
2023-03-06T08:02:25.328Z,30.15
2023-03-06T08:05:15.692Z,29.92
2023-03-06T08:07:57.355Z,29.69
2023-03-06T08:10:52.407Z,29.62
2023-03-06T08:13:40.701Z,29.76
2023-03-06T08:16:23.311Z,29.78
2023-03-06T08:19:05.600Z,29.47
2023-03-06T08:21:54.356Z,29.56
2023-03-06T08:24:42.612Z,29.63
2023-03-06T08:27:24.358Z,29.53
2023-03-06T08:30:08.020Z,29.58
2023-03-06T08:32:57.396Z,29.45
2023-03-06T08:35:39.537Z,29.49
2023-03-06T08:38:28.348Z,29.38
2023-03-06T08:41:16.569Z,29.35
2023-03-06T08:43:59.335Z,29.49
2023-03-06T08:46:49.397Z,29.35
2023-03-06T08:49:31.721Z,29.34
2023-03-06T08:52:20.405Z,29.23
2023-03-06T08:55:04.594Z,29.21
2023-03-06T08:57:54.377Z,29.29
2023-03-06T09:00:36.687Z,29.19
2023-03-06T09:03:25.494Z,29.20
2023-03-06T09:06:07.613Z,29.23
2023-03-06T09:09:03.304Z,29.23
2023-03-06T09:11:52.754Z,29.12
2023-03-06T09:14:34.610Z,28.99
2023-03-06T09:17:23.486Z,28.99
2023-03-06T09:20:06.488Z,28.81
2023-03-06T09:22:55.353Z,28.73
2023-03-06T09:25:37.615Z,28.71
2023-03-06T09:28:26.424Z,28.66
2023-03-06T09:31:08.672Z,28.65
2023-03-06T09:33:57.309Z,28.51
2023-03-06T09:36:55.549Z,28.49
2023-03-06T09:39:46.394Z,28.24
2023-03-06T09:42:30.682Z,28.35
2023-03-06T09:45:21.496Z,28.45
2023-03-06T09:48:14.703Z,28.54
2023-03-06T09:51:08.305Z,28.57
2023-03-06T09:54:06.226Z,28.59
2023-03-06T09:56:58.307Z,28.62
2023-03-06T09:59:41.674Z,28.54
2023-03-06T10:02:54.411Z,28.50
2023-03-06T10:05:59.895Z,28.40
2023-03-06T10:09:15.355Z,28.31
2023-03-06T10:12:24.582Z,28.38
2023-03-06T10:15:28.452Z,28.44
2023-03-06T10:18:19.736Z,28.44
2023-03-06T10:21:19.121Z,28.42
2023-03-06T10:24:35.618Z,28.38
2023-03-06T10:27:39.414Z,28.41
2023-03-06T10:30:48.784Z,28.44
2023-03-06T10:33:38.316Z,28.31
2023-03-06T10:36:22.544Z,28.30
2023-03-06T10:39:13.353Z,28.21
2023-03-06T10:42:03.586Z,28.13
2023-03-06T10:44:46.361Z,28.11
2023-03-06T10:47:37.982Z,28.04
2023-03-06T10:50:42.635Z,27.95
2023-03-06T10:53:35.692Z,28.00
2023-03-06T10:56:18.305Z,27.91
2023-03-06T10:59:19.663Z,27.86
2023-03-06T11:02:07.335Z,27.81
2023-03-06T11:05:01.074Z,27.76
2023-03-06T11:07:44.331Z,27.75
2023-03-06T11:10:36.449Z,27.75
2023-03-06T11:13:32.620Z,27.66
2023-03-06T11:16:35.560Z,27.69
2023-03-06T11:19:35.345Z,27.67
2023-03-06T11:22:21.035Z,27.55
2023-03-06T11:25:11.325Z,27.48
2023-03-06T11:28:26.525Z,27.45
2023-03-06T11:31:18.948Z,27.43
2023-03-06T11:34:27.399Z,27.35
2023-03-06T11:37:32.045Z,27.29
2023-03-06T11:40:32.682Z,27.19
2023-03-06T11:43:28.668Z,27.12
2023-03-06T11:46:36.361Z,27.03
2023-03-06T11:49:47.411Z,26.97
2023-03-06T11:52:47.845Z,26.89
2023-03-06T11:55:54.349Z,26.83
2023-03-06T11:58:57.310Z,26.73
2023-03-06T12:01:58.603Z,26.70
2023-03-06T12:04:47.302Z,26.68
2023-03-06T12:07:43.205Z,26.66
2023-03-06T12:11:04.292Z,26.55
2023-03-06T12:14:16.178Z,26.47
2023-03-06T12:17:14.410Z,26.41
2023-03-06T12:20:23.287Z,26.34
2023-03-06T12:23:39.315Z,26.22
2023-03-06T12:26:36.618Z,26.11
2023-03-06T12:29:37.386Z,26.10
2023-03-06T12:32:58.636Z,26.05
2023-03-06T12:36:03.397Z,25.97
2023-03-06T12:39:09.622Z,25.92
2023-03-06T12:42:23.400Z,25.84
2023-03-06T12:45:23.557Z,25.71
2023-03-06T12:48:07.336Z,25.62
2023-03-06T12:50:56.666Z,25.52
2023-03-06T12:53:42.351Z,25.47
2023-03-06T12:56:31.398Z,25.37
2023-03-06T12:59:13.602Z,25.33
2023-03-06T13:02:20.378Z,25.24
2023-03-06T13:05:27.383Z,25.18
2023-03-06T13:08:52.274Z,25.04
2023-03-06T13:12:08.290Z,24.98
2023-03-06T13:15:03.699Z,24.97
2023-03-06T13:17:46.382Z,24.88
2023-03-06T13:20:45.948Z,24.81
2023-03-06T13:23:43.320Z,24.75
2023-03-06T13:26:35.650Z,24.65
2023-03-06T13:29:42.846Z,24.55
2023-03-06T13:32:39.886Z,24.54
2023-03-06T13:35:50.414Z,24.41
2023-03-06T13:38:46.347Z,24.33
2023-03-06T13:41:31.749Z,24.20
2023-03-06T13:44:32.354Z,24.15
2023-03-06T13:47:27.766Z,23.98
2023-03-06T13:50:45.308Z,23.82
2023-03-06T13:53:45.974Z,23.74
2023-03-06T13:56:56.357Z,23.67
2023-03-06T14:00:09.660Z,23.63
2023-03-06T14:03:14.411Z,23.59
2023-03-06T14:05:59.954Z,23.51
2023-03-06T14:08:49.331Z,23.46
2023-03-06T14:11:39.767Z,23.39
2023-03-06T14:14:23.392Z,23.31
2023-03-06T14:17:14.724Z,23.18
2023-03-06T14:19:58.423Z,23.13
2023-03-06T14:22:47.633Z,23.05
2023-03-06T14:25:39.389Z,22.93
2023-03-06T14:28:34.782Z,22.84
2023-03-06T14:31:39.419Z,22.76
2023-03-06T14:34:32.492Z,22.69
2023-03-06T14:37:37.399Z,22.63
2023-03-06T14:40:42.563Z,22.49
2023-03-06T14:43:34.801Z,22.53
2023-03-06T14:46:22.568Z,22.35
2023-03-06T14:49:14.673Z,22.25
2023-03-06T14:52:07.565Z,22.15
2023-03-06T14:54:53.617Z,22.08
2023-03-06T14:57:42.291Z,22.00
2023-03-06T15:00:29.817Z,22.02
2023-03-06T15:03:31.521Z,21.97
2023-03-06T15:06:24.352Z,21.98
2023-03-06T15:09:32.369Z,21.97
2023-03-06T15:12:28.894Z,21.89
2023-03-06T15:15:18.477Z,21.80
2023-03-06T15:18:07.859Z,21.81
2023-03-06T15:21:00.593Z,21.81
2023-03-06T15:23:51.270Z,21.78
2023-03-06T15:26:43.879Z,21.69
2023-03-06T15:29:32.770Z,21.70
2023-03-06T15:32:41.732Z,21.69
2023-03-06T15:35:38.399Z,21.66
2023-03-06T15:38:51.344Z,21.59
2023-03-06T15:41:40.043Z,21.60
2023-03-06T15:44:30.651Z,21.55
2023-03-06T15:47:19.844Z,21.56
2023-03-06T15:50:02.469Z,21.53
2023-03-06T15:52:53.291Z,21.53
2023-03-06T15:55:36.268Z,21.52
2023-03-06T15:58:28.190Z,21.46
2023-03-06T16:01:11.363Z,21.38
2023-03-06T16:03:54.608Z,21.33
2023-03-06T16:09:49.381Z,21.22
2023-03-06T16:12:40.055Z,21.16
2023-03-06T16:15:29.774Z,21.11
2023-03-06T16:18:19.699Z,21.06
2023-03-06T16:21:04.016Z,21.06
2023-03-06T16:23:53.880Z,21.02
2023-03-06T16:26:42.399Z,20.98
2023-03-06T16:29:35.311Z,20.98
2023-03-06T16:32:19.870Z,20.98
2023-03-06T16:35:10.214Z,20.99
2023-03-06T16:37:55.916Z,20.97
2023-03-06T16:40:43.015Z,20.98
2023-03-06T16:43:33.337Z,21.03
2023-03-06T16:46:31.084Z,21.00
2023-03-06T16:49:14.923Z,21.16
2023-03-06T16:52:05.911Z,21.11
2023-03-06T16:54:49.999Z,21.13
2023-03-06T16:57:44.045Z,21.14
2023-03-06T17:00:34.824Z,21.11
2023-03-06T17:03:26.006Z,21.09
2023-03-06T17:06:09.960Z,21.19
2023-03-06T17:09:00.958Z,21.14
2023-03-06T17:11:48.358Z,21.06
2023-03-06T17:14:38.893Z,20.98
2023-03-06T17:17:22.769Z,20.98
2023-03-06T17:20:17.022Z,20.93
2023-03-06T17:23:01.363Z,20.85
2023-03-06T17:25:53.168Z,20.81
2023-03-06T17:28:43.811Z,20.83
2023-03-06T17:31:36.651Z,20.78
2023-03-06T17:34:45.378Z,20.75
2023-03-06T17:37:34.372Z,20.79
2023-03-06T17:40:19.642Z,20.67
2023-03-06T17:43:10.019Z,20.59
2023-03-06T17:45:57.324Z,20.58
2023-03-06T17:48:48.291Z,20.56
2023-03-06T17:51:31.723Z,20.54
2023-03-06T17:54:20.348Z,20.44
2023-03-06T17:57:06.509Z,20.46
2023-03-06T17:59:57.798Z,20.41
2023-03-06T18:02:52.224Z,20.36
2023-03-06T18:05:44.086Z,20.40
2023-03-06T18:08:29.632Z,20.44
2023-03-06T18:11:21.068Z,20.36
2023-03-06T18:14:06.007Z,20.36
2023-03-06T18:16:56.897Z,20.30
2023-03-06T18:19:40.986Z,20.23
2023-03-06T18:22:30.599Z,20.27
2023-03-06T18:25:13.592Z,20.25
2023-03-06T18:28:02.308Z,20.32
2023-03-06T18:30:48.296Z,20.44
2023-03-06T18:33:37.986Z,20.30
2023-03-06T18:36:22.237Z,20.31
2023-03-06T18:39:15.914Z,20.27
2023-03-06T18:41:59.043Z,20.22
2023-03-06T18:44:49.732Z,20.34
2023-03-06T18:47:33.605Z,20.35
2023-03-06T18:50:25.909Z,20.40
2023-03-06T18:53:10.584Z,20.32
2023-03-06T18:56:05.108Z,20.21
2023-03-06T18:58:50.599Z,20.12
2023-03-06T19:01:40.768Z,20.15
2023-03-06T19:04:24.924Z,20.16
2023-03-06T19:07:16.526Z,20.08
2023-03-06T19:10:05.961Z,20.06
2023-03-06T19:12:49.972Z,20.03
2023-03-06T19:15:39.689Z,20.00
2023-03-06T19:18:25.412Z,19.97
2023-03-06T19:21:34.668Z,19.93
2023-03-06T19:24:21.805Z,19.92
2023-03-06T19:27:12.723Z,19.90
2023-03-06T19:29:55.322Z,19.94
2023-03-06T19:32:46.882Z,19.91
2023-03-06T19:35:36.006Z,19.88
2023-03-06T19:38:25.992Z,19.79
2023-03-06T19:41:09.322Z,19.82
2023-03-06T19:44:11.676Z,19.81
2023-03-06T19:46:55.088Z,19.80
2023-03-06T19:49:46.971Z,19.76
2023-03-06T19:52:31.017Z,19.66
2023-03-06T19:55:20.269Z,19.66
2023-03-06T19:58:03.944Z,19.59
2023-03-06T20:00:53.766Z,19.54
2023-03-06T20:03:35.898Z,19.49
2023-03-06T20:06:28.627Z,19.43
2023-03-06T20:09:24.231Z,19.45
2023-03-06T20:12:13.389Z,19.37
2023-03-06T20:15:03.461Z,19.37
2023-03-06T20:17:46.891Z,19.31
2023-03-06T20:20:36.930Z,19.26
2023-03-06T20:23:25.725Z,19.23
2023-03-06T20:26:13.497Z,19.19
2023-03-06T20:29:02.513Z,19.23
2023-03-06T20:31:52.271Z,19.21
2023-03-06T20:34:40.848Z,19.20
2023-03-06T20:37:23.363Z,19.12
2023-03-06T20:40:13.529Z,19.07
2023-03-06T20:42:56.350Z,19.08
2023-03-06T20:45:46.837Z,18.99
2023-03-06T20:48:29.300Z,18.93
2023-03-06T20:51:19.636Z,18.85
2023-03-06T20:54:09.333Z,18.90
2023-03-06T20:56:59.048Z,18.88
2023-03-06T20:59:42.306Z,18.77
2023-03-06T21:02:31.236Z,18.70
2023-03-06T21:05:13.908Z,18.68
2023-03-06T21:08:02.285Z,18.69
2023-03-06T21:11:00.324Z,18.71
2023-03-06T21:13:42.561Z,18.61
2023-03-06T21:16:34.279Z,18.59
2023-03-06T21:19:23.280Z,18.60
2023-03-06T21:22:12.259Z,18.63
2023-03-06T21:25:01.837Z,18.55
2023-03-06T21:27:43.665Z,18.55
2023-03-06T21:30:32.323Z,18.53
2023-03-06T21:33:14.632Z,18.56
2023-03-06T21:36:03.327Z,18.57
2023-03-06T21:38:45.631Z,18.50
2023-03-06T21:41:38.373Z,18.50
2023-03-06T21:44:20.883Z,18.51
2023-03-06T21:47:09.350Z,18.48
2023-03-06T21:49:51.616Z,18.44
2023-03-06T21:52:40.321Z,18.38
2023-03-06T21:55:23.652Z,18.32
2023-03-06T21:58:12.287Z,18.31
2023-03-06T22:00:54.593Z,18.35
2023-03-06T22:03:43.312Z,18.34
2023-03-06T22:06:28.544Z,18.27
2023-03-06T22:09:17.269Z,18.20
2023-03-06T22:12:00.032Z,18.25
2023-03-06T22:14:51.226Z,18.26
2023-03-06T22:17:33.604Z,18.16
2023-03-06T22:20:23.270Z,18.14
2023-03-06T22:23:05.600Z,18.10
2023-03-06T22:25:54.291Z,18.09
2023-03-06T22:28:36.585Z,18.04
2023-03-06T22:31:28.338Z,18.02
2023-03-06T22:34:10.555Z,18.07
2023-03-06T22:36:59.239Z,18.01
2023-03-06T22:39:41.556Z,18.08
2023-03-06T22:42:30.536Z,17.98
2023-03-06T22:45:13.666Z,18.01
2023-03-06T22:48:10.497Z,18.05
2023-03-06T22:50:53.568Z,17.93
2023-03-06T22:53:42.283Z,17.98
2023-03-06T22:56:27.524Z,17.85
2023-03-06T22:59:16.260Z,17.98
2023-03-06T23:02:05.297Z,17.96
2023-03-06T23:04:56.511Z,17.91
2023-03-06T23:07:39.256Z,17.94
2023-03-06T23:10:35.143Z,17.93
2023-03-06T23:13:42.309Z,17.85
2023-03-06T23:16:42.535Z,17.94
2023-03-06T23:19:49.284Z,17.76
2023-03-06T23:22:49.574Z,17.87
2023-03-06T23:25:57.273Z,17.73
2023-03-06T23:28:39.528Z,17.78
2023-03-06T23:31:36.264Z,17.79
2023-03-06T23:34:18.532Z,17.85
2023-03-06T23:37:07.343Z,17.88
2023-03-06T23:39:50.547Z,17.91
2023-03-06T23:42:39.494Z,17.82
2023-03-06T23:45:21.520Z,17.72
2023-03-06T23:48:10.289Z,17.72
2023-03-06T23:50:52.594Z,17.70
2023-03-06T23:53:41.339Z,17.70
2023-03-06T23:56:23.600Z,17.68
2023-03-06T23:59:12.266Z,17.67
